Time;durP1;ratioP1;P1;durP2;ratioP2;P2;SDS_P1;SDS_P2;PMS_P1;PMS_P2;Temp;Humidity;BMP_temperature;BMP_pressure;BME280_temperature;BME280_humidity;BME280_pressure;Samples;Min_cycle;Max_cycle;Signal;HPM_P1;HPM_P2
2023/01/19 00:01:05;;;;;;;;;;;;;;;;;;5035419;28;19917;-70
2023/01/19 00:03:32;;;;;;;;;;;;;;;;;;5035480;28;20379;-69
2023/01/19 00:05:58;;;;;;;;;;;;;;;;;;5035829;28;19905;-70
2023/01/19 00:08:24;;;;;;;;;;;;;;;;;;5035145;28;19905;-70
2023/01/19 00:10:50;;;;;;;;;;;;;;;;;;5034911;28;19905;-70
2023/01/19 00:13:16;;;;;;;;;;;;;;;;;;5035083;28;20376;-70
2023/01/19 00:15:42;;;;;;;;;;;;;;;;;;5035059;28;19909;-69
2023/01/19 00:18:09;;;;;;;;;;;;;;;;;;5035207;28;19972;-70
2023/01/19 00:20:35;;;;;;;;;;;;;;;;;;5035013;28;19920;-70
2023/01/19 00:23:01;;;;;;;;;;;;;;;;;;5034690;28;19905;-70
2023/01/19 00:25:27;;;;;;;;;;;;;;;;;;5035000;28;19951;-70
2023/01/19 00:27:54;;;;;;;;;;;;;;;;;;5034903;28;19905;-70
2023/01/19 00:30:20;;;;;;;;;;;;;;;;;;5034744;28;19908;-70
2023/01/19 00:32:46;;;;;;;;;;;;;;;;;;5035103;28;19909;-70
2023/01/19 00:35:12;;;;;;;;;;;;;;;;;;5034819;28;19916;-70
2023/01/19 00:37:38;;;;;;;;;;;;;;;;;;5034737;28;19911;-69
2023/01/19 00:40:05;;;;;;;;;;;;;;;;;;5034814;28;19919;-70
2023/01/19 00:42:43;;;;;;;;;;;;;;;;;;5034797;28;19912;-70
2023/01/19 00:45:09;;;;;;;;;;;;;;;;;;5034718;28;19913;-70
2023/01/19 00:47:35;;;;;;;;;;;;;;;;;;5034877;28;19905;-70
2023/01/19 00:50:01;;;;;;;;;;;;;;;;;;5034722;28;20372;-70
2023/01/19 00:52:27;;;;;;;;;;;;;;;;;;5034126;28;20373;-70
2023/01/19 00:54:53;;;;;;;;;;;;;;;;;;5034744;28;19905;-70
2023/01/19 00:57:20;;;;;;;;;;;;;;;;;;5034425;28;19909;-70
2023/01/19 00:59:46;;;;;;;;;;;;;;;;;;5034524;28;19913;-69
2023/01/19 01:02:12;;;;;;;;;;;;;;;;;;5034334;28;19906;-70
2023/01/19 01:04:38;;;;;;;;;;;;;;;;;;5034310;28;19905;-70
2023/01/19 01:07:04;;;;;;;;;;;;;;;;;;5033965;28;19905;-70
2023/01/19 01:09:31;;;;;;;;;;;;;;;;;;5034203;28;19915;-70
2023/01/19 01:11:57;;;;;;;;;;;;;;;;;;5033878;28;20358;-70
2023/01/19 01:14:23;;;;;;;;;;;;;;;;;;5034223;28;19912;-70
2023/01/19 01:16:49;;;;;;;;;;;;;;;;;;5033136;28;19909;-70
2023/01/19 01:19:15;;;;;;;;;;;;;;;;;;5033959;28;19927;-69
2023/01/19 01:21:41;;;;;;;;;;;;;;;;;;5033457;28;19967;-70
2023/01/19 01:24:08;;;;;;;;;;;;;;;;;;5034059;28;19905;-70
2023/01/19 01:26:34;;;;;;;;;;;;;;;;;;5033762;28;19919;-70
2023/01/19 01:29:00;;;;;;;;;;;;;;;;;;5032586;28;19905;-70
2023/01/19 01:31:26;;;;;;;;;;;;;;;;;;5033780;28;20317;-70
2023/01/19 01:33:52;;;;;;;;;;;;;;;;;;5033988;28;19911;-70
2023/01/19 01:36:19;;;;;;;;;;;;;;;;;;5033325;28;19904;-70
2023/01/19 01:38:45;;;;;;;;;;;;;;;;;;5033684;28;20370;-70
2023/01/19 01:41:12;;;;;;;;;;;;;;;;;;5033616;28;19920;-70
2023/01/19 01:43:38;;;;;;;;;;;;;;;;;;5033620;28;19919;-70
2023/01/19 01:46:04;;;;;;;;;;;;;;;;;;5033409;28;20407;-70
2023/01/19 01:48:30;;;;;;;;;;;;;;;;;;5033542;28;19905;-70
2023/01/19 01:53:41;;;;;;;;;;;;;;;;;;5032844;28;19913;-70
2023/01/19 01:56:08;;;;;;;;;;;;;;;;;;5033136;28;19905;-70
2023/01/19 01:58:34;;;;;;;;;;;;;;;;;;5033502;28;19931;-69
2023/01/19 02:03:45;;;;;;;;;;;;;;;;;;5033034;28;20289;-70
2023/01/19 02:06:11;;;;;;;;;;;;;;;;;;5033038;28;19912;-70
2023/01/19 02:14:07;;;;;;;;;;;;;;;;;;5032911;28;20362;-70
2023/01/19 02:16:33;;;;;;;;;;;;;;;;;;5033237;28;19913;-70
2023/01/19 02:19:00;;;;;;;;;;;;;;;;;;5032699;28;19925;-70
2023/01/19 02:21:26;;;;;;;;;;;;;;;;;;5032829;28;20308;-70
2023/01/19 02:23:52;;;;;;;;;;;;;;;;;;5033124;28;19909;-70
2023/01/19 02:26:18;;;;;;;;;;;;;;;;;;5032514;28;19905;-70
2023/01/19 02:28:45;;;;;;;;;;;;;;;;;;5032634;28;19959;-70
2023/01/19 02:31:11;;;;;;;;;;;;;;;;;;5031815;28;19927;-70
2023/01/19 02:33:37;;;;;;;;;;;;;;;;;;5032270;28;19916;-69
2023/01/19 02:36:03;;;;;;;;;;;;;;;;;;5031315;28;19909;-70
2023/01/19 02:38:29;;;;;;;;;;;;;;;;;;5032677;28;19905;-70
2023/01/19 02:40:56;;;;;;;;;;;;;;;;;;5032315;28;19913;-70
2023/01/19 02:43:22;;;;;;;;;;;;;;;;;;5032580;28;19911;-70
2023/01/19 02:45:48;;;;;;;;;;;;;;;;;;5032588;28;19905;-70
2023/01/19 02:48:16;;;;;;;;;;;;;;;;;;5031993;28;19905;-69
2023/01/19 02:50:46;;;;;;;;;;;;;;;;;;5032213;28;19913;-70
2023/01/19 02:53:12;;;;;;;;;;;;;;;;;;5032333;28;19919;-69
2023/01/19 02:55:38;;;;;;;;;;;;;;;;;;5031016;28;19912;-69
2023/01/19 02:58:05;;;;;;;;;;;;;;;;;;5032488;28;20358;-70
2023/01/19 03:00:31;;;;;;;;;;;;;;;;;;5032229;28;19916;-70
2023/01/19 03:02:57;;;;;;;;;;;;;;;;;;5032216;28;19905;-70
2023/01/19 03:05:24;;;;;;;;;;;;;;;;;;5035953;28;19911;-70
2023/01/19 03:07:51;;;;;;;;;;;;;;;;;;5036853;28;19923;-70
2023/01/19 03:10:17;;;;;;;;;;;;;;;;;;5036305;28;19905;-70
2023/01/19 03:12:43;;;;;;;;;;;;;;;;;;5036335;28;19904;-70
2023/01/19 03:15:09;;;;;;;;;;;;;;;;;;5036428;28;20378;-70
2023/01/19 03:17:35;;;;;;;;;;;;;;;;;;5035918;28;19966;-70
2023/01/19 03:20:02;;;;;;;;;;;;;;;;;;5035951;28;19911;-70
2023/01/19 03:22:28;;;;;;;;;;;;;;;;;;5036297;28;19911;-70
2023/01/19 03:24:54;;;;;;;;;;;;;;;;;;5036082;28;19916;-69
2023/01/19 03:27:21;;;;;;;;;;;;;;;;;;5036030;28;19905;-70
2023/01/19 03:29:47;;;;;;;;;;;;;;;;;;5036097;28;19962;-70
2023/01/19 03:32:13;;;;;;;;;;;;;;;;;;5035603;28;19905;-70
2023/01/19 03:34:39;;;;;;;;;;;;;;;;;;5036026;28;19909;-70
2023/01/19 03:37:05;;;;;;;;;;;;;;;;;;5035868;28;19911;-70
2023/01/19 03:39:31;;;;;;;;;;;;;;;;;;5035738;28;19931;-70
2023/01/19 03:41:58;;;;;;;;;;;;;;;;;;5035836;28;19925;-70
2023/01/19 03:44:24;;;;;;;;;;;;;;;;;;5035668;28;19909;-70
2023/01/19 03:46:50;;;;;;;;;;;;;;;;;;5035630;28;19905;-69
2023/01/19 03:49:17;;;;;;;;;;;;;;;;;;5034491;28;20377;-70
2023/01/19 03:51:43;;;;;;;;;;;;;;;;;;5035333;28;19927;-70
2023/01/19 03:54:09;;;;;;;;;;;;;;;;;;5034404;28;19909;-70
2023/01/19 03:56:36;;;;;;;;;;;;;;;;;;5035554;28;19908;-70
2023/01/19 03:59:04;;;;;;;;;;;;;;;;;;5034421;28;19909;-70
2023/01/19 04:01:30;;;;;;;;;;;;;;;;;;5035083;28;19919;-70
2023/01/19 04:03:56;;;;;;;;;;;;;;;;;;5034302;28;20376;-70
2023/01/19 04:06:22;;;;;;;;;;;;;;;;;;5035551;28;19911;-69
2023/01/19 04:08:49;;;;;;;;;;;;;;;;;;5035225;28;20293;-70
2023/01/19 04:11:15;;;;;;;;;;;;;;;;;;5035249;28;19905;-70
2023/01/19 04:13:41;;;;;;;;;;;;;;;;;;5035056;28;19905;-69
2023/01/19 04:16:07;;;;;;;;;;;;;;;;;;5034312;28;19909;-70
2023/01/19 04:18:34;;;;;;;;;;;;;;;;;;5035049;28;19908;-70
2023/01/19 04:21:00;;;;;;;;;;;;;;;;;;5034875;28;19917;-70
2023/01/19 04:23:27;;;;;;;;;;;;;;;;;;5035074;28;19905;-70
2023/01/19 04:25:53;;;;;;;;;;;;;;;;;;5034942;28;19905;-70
2023/01/19 04:28:19;;;;;;;;;;;;;;;;;;5034756;28;19905;-70
2023/01/19 04:30:46;;;;;;;;;;;;;;;;;;5034504;28;20332;-70
2023/01/19 04:33:12;;;;;;;;;;;;;;;;;;5034901;28;20333;-70
2023/01/19 04:35:38;;;;;;;;;;;;;;;;;;5034845;28;19905;-70
2023/01/19 04:38:04;;;;;;;;;;;;;;;;;;5034739;28;20366;-70
2023/01/19 04:40:31;;;;;;;;;;;;;;;;;;5035028;28;19954;-70
2023/01/19 04:42:57;;;;;;;;;;;;;;;;;;5034826;28;19905;-70
2023/01/19 04:45:23;;;;;;;;;;;;;;;;;;5034321;28;19905;-70
2023/01/19 04:47:50;;;;;;;;;;;;;;;;;;5034677;28;19905;-70
2023/01/19 04:50:16;;;;;;;;;;;;;;;;;;5034473;28;19962;-70
2023/01/19 04:52:42;;;;;;;;;;;;;;;;;;5034211;28;19924;-70
2023/01/19 04:55:09;;;;;;;;;;;;;;;;;;5034737;28;19915;-70
2023/01/19 04:57:35;;;;;;;;;;;;;;;;;;5034675;28;19991;-69
2023/01/19 05:00:01;;;;;;;;;;;;;;;;;;5033830;28;19905;-70
2023/01/19 05:02:28;;;;;;;;;;;;;;;;;;5034590;28;19905;-70
2023/01/19 05:04:54;;;;;;;;;;;;;;;;;;5034712;28;19905;-69
2023/01/19 05:07:20;;;;;;;;;;;;;;;;;;5033117;28;19909;-70
2023/01/19 05:09:46;;;;;;;;;;;;;;;;;;5034114;28;19912;-70
2023/01/19 05:12:12;;;;;;;;;;;;;;;;;;5033189;28;19912;-70
2023/01/19 05:14:38;;;;;;;;;;;;;;;;;;5033815;28;19906;-70
2023/01/19 05:17:05;;;;;;;;;;;;;;;;;;5034185;28;19916;-70
2023/01/19 05:19:31;;;;;;;;;;;;;;;;;;5033946;28;19906;-70
2023/01/19 05:21:57;;;;;;;;;;;;;;;;;;5034003;28;20289;-70
2023/01/19 05:24:23;;;;;;;;;;;;;;;;;;5034161;28;19909;-70
2023/01/19 05:26:49;;;;;;;;;;;;;;;;;;5032953;28;19911;-70
2023/01/19 05:29:16;;;;;;;;;;;;;;;;;;5033548;28;20467;-69
2023/01/19 05:31:42;;;;;;;;;;;;;;;;;;5033952;28;19905;-70
2023/01/19 05:34:08;;;;;;;;;;;;;;;;;;5033862;28;19913;-70
2023/01/19 05:36:34;;;;;;;;;;;;;;;;;;5033810;28;20273;-70
2023/01/19 05:39:00;;;;;;;;;;;;;;;;;;5033590;28;19916;-70
2023/01/19 05:41:27;;;;;;;;;;;;;;;;;;5033436;28;19917;-70
2023/01/19 05:43:53;;;;;;;;;;;;;;;;;;5033407;28;19905;-70
2023/01/19 05:46:19;;;;;;;;;;;;;;;;;;5033492;28;19905;-70
2023/01/19 05:48:45;;;;;;;;;;;;;;;;;;5033463;28;19905;-70
2023/01/19 05:51:11;;;;;;;;;;;;;;;;;;5033300;28;19920;-70
2023/01/19 05:53:37;;;;;;;;;;;;;;;;;;5033655;28;19908;-70
2023/01/19 05:56:04;;;;;;;;;;;;;;;;;;5033416;28;19954;-70
2023/01/19 05:58:30;;;;;;;;;;;;;;;;;;5033118;28;20300;-70
2023/01/19 06:00:56;;;;;;;;;;;;;;;;;;5032057;28;19913;-70
2023/01/19 06:03:22;;;;;;;;;;;;;;;;;;5033202;28;19905;-70
2023/01/19 06:05:48;;;;;;;;;;;;;;;;;;5033171;28;19905;-70
2023/01/19 06:08:14;;;;;;;;;;;;;;;;;;5033193;28;19905;-70
2023/01/19 06:10:41;;;;;;;;;;;;;;;;;;5032962;28;19905;-70
2023/01/19 06:13:09;;;;;;;;;;;;;;;;;;5031496;28;19905;-70
2023/01/19 06:15:36;;;;;;;;;;;;;;;;;;5032889;28;19913;-70
2023/01/19 06:18:02;;;;;;;;;;;;;;;;;;5032827;28;19904;-70
2023/01/19 06:20:28;;;;;;;;;;;;;;;;;;5032911;28;19917;-69
2023/01/19 06:22:55;;;;;;;;;;;;;;;;;;5032869;28;20297;-70
2023/01/19 06:25:21;;;;;;;;;;;;;;;;;;5032902;28;19984;-70
2023/01/19 06:27:47;;;;;;;;;;;;;;;;;;5032573;28;19909;-70
2023/01/19 06:30:13;;;;;;;;;;;;;;;;;;5032594;28;19909;-70
2023/01/19 06:32:39;;;;;;;;;;;;;;;;;;5032791;28;19919;-70
2023/01/19 06:35:06;;;;;;;;;;;;;;;;;;5032752;28;19905;-70
2023/01/19 06:37:32;;;;;;;;;;;;;;;;;;5032468;28;19905;-70
2023/01/19 06:39:59;;;;;;;;;;;;;;;;;;5032633;28;19905;-70
2023/01/19 06:42:25;;;;;;;;;;;;;;;;;;5032493;28;20369;-70
2023/01/19 06:44:51;;;;;;;;;;;;;;;;;;5032729;28;19911;-69
2023/01/19 06:47:17;;;;;;;;;;;;;;;;;;5032519;28;20297;-70
2023/01/19 06:49:43;;;;;;;;;;;;;;;;;;5032476;28;19909;-70
2023/01/19 06:52:10;;;;;;;;;;;;;;;;;;5032153;28;20404;-70
2023/01/19 06:54:36;;;;;;;;;;;;;;;;;;5032302;28;19905;-69
2023/01/19 06:57:02;;;;;;;;;;;;;;;;;;5032309;28;20370;-70
2023/01/19 06:59:28;;;;;;;;;;;;;;;;;;5032575;28;19912;-70
2023/01/19 07:01:55;;;;;;;;;;;;;;;;;;5032226;28;19913;-70
2023/01/19 07:04:21;;;;;;;;;;;;;;;;;;5032246;28;19935;-69
2023/01/19 07:06:48;;;;;;;;;;;;;;;;;;5032561;28;19905;-70
2023/01/19 07:09:15;;;;;;;;;;;;;;;;;;5031976;28;19971;-70
2023/01/19 07:11:42;;;;;;;;;;;;;;;;;;5032414;28;19909;-70
2023/01/19 07:14:08;;;;;;;;;;;;;;;;;;5028771;28;19916;-69
2023/01/19 07:16:34;;;;;;;;;;;;;;;;;;5031051;28;20262;-70
2023/01/19 07:19:00;;;;;;;;;;;;;;;;;;5032747;28;19913;-70
2023/01/19 07:21:26;;;;;;;;;;;;;;;;;;5030414;28;19916;-70
2023/01/19 07:23:53;;;;;;;;;;;;;;;;;;5023464;28;20376;-69
2023/01/19 07:26:20;;;;;;;;;;;;;;;;;;5020926;28;19914;-70
2023/01/19 07:28:46;;;;;;;;;;;;;;;;;;5018102;28;19913;-70
2023/01/19 07:31:12;;;;;;;;;;;;;;;;;;5031793;28;20358;-69
2023/01/19 07:33:38;;;;;;;;;;;;;;;;;;5027050;28;19916;-69
2023/01/19 07:36:04;;;;;;;;;;;;;;;;;;5027815;28;19909;-70
2023/01/19 07:38:31;;;;;;;;;;;;;;;;;;5019426;28;19909;-69
2023/01/19 07:40:57;;;;;;;;;;;;;;;;;;5021557;28;19913;-70
2023/01/19 07:43:23;;;;;;;;;;;;;;;;;;5031762;28;20266;-70
2023/01/19 07:45:50;;;;;;;;;;;;;;;;;;5030534;28;19909;-70
2023/01/19 07:48:16;;;;;;;;;;;;;;;;;;5020480;28;20378;-70
2023/01/19 07:50:43;;;;;;;;;;;;;;;;;;5024777;28;19910;-70
2023/01/19 07:53:10;;;;;;;;;;;;;;;;;;5028895;28;20292;-69
2023/01/19 07:55:36;;;;;;;;;;;;;;;;;;5035218;28;20362;-69
2023/01/19 07:58:06;;;;;;;;;;;;;;;;;;5035484;28;19909;-70
2023/01/19 08:00:32;;;;;;;;;;;;;;;;;;5034204;28;19913;-70
2023/01/19 08:02:58;;;;;;;;;;;;;;;;;;5035292;28;19911;-70
2023/01/19 08:05:24;;;;;;;;;;;;;;;;;;5035384;28;19905;-70
2023/01/19 08:07:51;;;;;;;;;;;;;;;;;;5034681;28;20376;-69
2023/01/19 08:10:21;;;;;;;;;;;;;;;;;;5034864;28;19911;-70
2023/01/19 08:12:47;;;;;;;;;;;;;;;;;;5028380;28;19915;-70
2023/01/19 08:15:14;;;;;;;;;;;;;;;;;;5016716;28;19905;-69
2023/01/19 08:17:40;;;;;;;;;;;;;;;;;;5015026;28;19909;-69
2023/01/19 08:20:08;;;;;;;;;;;;;;;;;;5015100;28;19905;-70
2023/01/19 08:22:34;;;;;;;;;;;;;;;;;;5018196;28;19917;-69
2023/01/19 08:25:00;;;;;;;;;;;;;;;;;;5028033;28;19913;-70
2023/01/19 08:27:26;;;;;;;;;;;;;;;;;;5033470;28;20320;-70
2023/01/19 08:29:53;;;;;;;;;;;;;;;;;;5032740;28;20289;-70
2023/01/19 08:32:19;;;;;;;;;;;;;;;;;;5033473;28;20385;-70
2023/01/19 08:34:45;;;;;;;;;;;;;;;;;;5033189;28;20374;-70
2023/01/19 08:37:12;;;;;;;;;;;;;;;;;;5022689;28;19920;-70
2023/01/19 08:39:38;;;;;;;;;;;;;;;;;;5031607;28;20374;-70
2023/01/19 08:42:04;;;;;;;;;;;;;;;;;;5031856;28;19959;-70
2023/01/19 08:44:30;;;;;;;;;;;;;;;;;;5015997;28;20373;-70
2023/01/19 08:46:56;;;;;;;;;;;;;;;;;;5033012;28;19913;-70
2023/01/19 08:49:23;;;;;;;;;;;;;;;;;;5033691;28;19915;-70
2023/01/19 08:51:49;;;;;;;;;;;;;;;;;;5032960;28;19928;-70
2023/01/19 08:54:15;;;;;;;;;;;;;;;;;;5036862;28;19912;-69
2023/01/19 08:56:42;;;;;;;;;;;;;;;;;;5036967;28;19909;-68
2023/01/19 08:59:08;;;;;;;;;;;;;;;;;;5033499;28;19935;-68
2023/01/19 09:01:35;;;;;;;;;;;;;;;;;;5049544;28;19970;-70
2023/01/19 09:04:02;;;;;;;;;;;;;;;;;;5033142;28;19909;-70
2023/01/19 09:06:28;;;;;;;;;;;;;;;;;;5032797;28;20608;-69
2023/01/19 09:08:54;;;;;;;;;;;;;;;;;;5033538;28;19924;-70
2023/01/19 09:11:20;;;;;;;;;;;;;;;;;;5032899;28;19907;-69
2023/01/19 09:13:46;;;;;;;;;;;;;;;;;;5032548;28;19913;-69
2023/01/19 09:16:14;;;;;;;;;;;;;;;;;;5033121;28;19909;-70
2023/01/19 09:18:40;;;;;;;;;;;;;;;;;;5033069;28;19927;-70
2023/01/19 09:21:07;;;;;;;;;;;;;;;;;;5032933;28;19913;-70
2023/01/19 09:23:33;;;;;;;;;;;;;;;;;;5032908;28;19911;-70
2023/01/19 09:25:59;;;;;;;;;;;;;;;;;;5032448;28;19934;-69
2023/01/19 09:28:25;;;;;;;;;;;;;;;;;;5032758;28;20482;-69
2023/01/19 09:30:52;;;;;;;;;;;;;;;;;;5032802;28;19905;-69
2023/01/19 09:33:18;;;;;;;;;;;;;;;;;;5033010;28;20565;-69
2023/01/19 09:35:44;;;;;;;;;;;;;;;;;;5032143;28;20464;-69
2023/01/19 09:38:10;;;;;;;;;;;;;;;;;;5032075;28;19905;-70
2023/01/19 09:40:37;;;;;;;;;;;;;;;;;;5034859;28;19921;-71
2023/01/19 09:43:03;;;;;;;;;;;;;;;;;;5030067;28;19905;-70
2023/01/19 09:45:30;;;;;;;;;;;;;;;;;;5027874;28;19909;-71
2023/01/19 09:47:56;;;;;;;;;;;;;;;;;;5043417;28;19911;-71
2023/01/19 09:50:22;;;;;;;;;;;;;;;;;;5052147;28;19973;-69
2023/01/19 09:52:48;;;;;;;;;;;;;;;;;;5034275;28;19928;-69
2023/01/19 09:55:15;;;;;;;;;;;;;;;;;;5032395;28;20267;-69
2023/01/19 09:57:42;;;;;;;;;;;;;;;;;;5032050;28;20333;-69
2023/01/19 10:00:09;;;;;;;;;;;;;;;;;;5031904;28;19932;-69
2023/01/19 10:02:35;;;;;;;;;;;;;;;;;;5032261;28;19919;-68
2023/01/19 10:05:01;;;;;;;;;;;;;;;;;;5049165;28;19913;-69
2023/01/19 10:07:28;;;;;;;;;;;;;;;;;;5052207;28;19922;-69
2023/01/19 10:09:54;;;;;;;;;;;;;;;;;;5037983;28;19966;-69
2023/01/19 10:12:20;;;;;;;;;;;;;;;;;;5031678;28;19909;-69
2023/01/19 10:14:46;;;;;;;;;;;;;;;;;;5031377;28;20324;-69
2023/01/19 10:17:13;;;;;;;;;;;;;;;;;;5030656;28;19915;-68
2023/01/19 10:19:39;;;;;;;;;;;;;;;;;;5032464;28;19909;-68
2023/01/19 10:22:05;;;;;;;;;;;;;;;;;;5038016;28;19917;-69
2023/01/19 10:24:32;;;;;;;;;;;;;;;;;;5036831;28;19919;-68
2023/01/19 10:26:58;;;;;;;;;;;;;;;;;;5026003;28;19913;-68
2023/01/19 10:29:24;;;;;;;;;;;;;;;;;;5012024;28;19911;-68
2023/01/19 10:31:50;;;;;;;;;;;;;;;;;;5033494;28;19939;-70
2023/01/19 10:34:19;;;;;;;;;;;;;;;;;;5039458;28;19909;-70
2023/01/19 10:36:45;;;;;;;;;;;;;;;;;;5042207;28;19961;-70
2023/01/19 10:39:12;;;;;;;;;;;;;;;;;;5041125;28;19905;-70
2023/01/19 10:41:38;;;;;;;;;;;;;;;;;;5040037;28;20359;-70
2023/01/19 10:44:04;;;;;;;;;;;;;;;;;;5039689;28;19934;-68
2023/01/19 10:46:30;;;;;;;;;;;;;;;;;;5036279;28;19920;-68
2023/01/19 10:48:56;;;;;;;;;;;;;;;;;;5031427;28;19927;-68
2023/01/19 10:51:23;;;;;;;;;;;;;;;;;;5026350;28;19912;-68
2023/01/19 10:53:49;;;;;;;;;;;;;;;;;;5034418;28;20438;-68
2023/01/19 10:56:15;;;;;;;;;;;;;;;;;;5034391;28;19909;-70
2023/01/19 10:58:42;;;;;;;;;;;;;;;;;;5051201;28;19915;-71
2023/01/19 11:01:08;;;;;;;;;;;;;;;;;;5042030;28;19919;-70
2023/01/19 11:03:34;;;;;;;;;;;;;;;;;;5026134;28;19905;-70
2023/01/19 11:06:01;;;;;;;;;;;;;;;;;;5019040;28;20270;-68
2023/01/19 11:08:27;;;;;;;;;;;;;;;;;;5018234;28;19962;-68
2023/01/19 11:10:53;;;;;;;;;;;;;;;;;;5013041;28;19905;-69
2023/01/19 11:13:19;;;;;;;;;;;;;;;;;;5013357;28;20450;-70
2023/01/19 11:15:45;;;;;;;;;;;;;;;;;;5030861;28;19915;-70
2023/01/19 11:18:12;;;;;;;;;;;;;;;;;;5030774;28;19909;-70
2023/01/19 11:20:42;;;;;;;;;;;;;;;;;;5030088;28;20312;-70
2023/01/19 11:23:08;;;;;;;;;;;;;;;;;;5042000;28;19917;-70
2023/01/19 11:25:35;;;;;;;;;;;;;;;;;;5020743;28;20449;-70
2023/01/19 11:28:01;;;;;;;;;;;;;;;;;;5035043;28;19905;-69
2023/01/19 11:30:27;;;;;;;;;;;;;;;;;;5034937;28;19920;-69
2023/01/19 11:32:55;;;;;;;;;;;;;;;;;;5035130;28;19939;-69
2023/01/19 11:35:21;;;;;;;;;;;;;;;;;;5031999;28;19909;-70
2023/01/19 11:37:47;;;;;;;;;;;;;;;;;;5020626;28;20443;-70
2023/01/19 11:40:13;;;;;;;;;;;;;;;;;;5015322;28;19906;-70
2023/01/19 11:42:39;;;;;;;;;;;;;;;;;;5013595;28;19924;-70
2023/01/19 11:45:06;;;;;;;;;;;;;;;;;;5015134;28;19928;-70
2023/01/19 11:47:32;;;;;;;;;;;;;;;;;;5014741;28;20352;-70
2023/01/19 11:49:58;;;;;;;;;;;;;;;;;;5015262;28;19905;-70
2023/01/19 11:52:24;;;;;;;;;;;;;;;;;;5022396;28;19925;-70
2023/01/19 11:54:50;;;;;;;;;;;;;;;;;;5034590;28;19920;-70
2023/01/19 11:57:17;;;;;;;;;;;;;;;;;;5034890;28;20357;-70
2023/01/19 11:59:43;;;;;;;;;;;;;;;;;;5034062;28;19909;-70
2023/01/19 12:02:09;;;;;;;;;;;;;;;;;;5033447;28;19913;-70
2023/01/19 12:04:35;;;;;;;;;;;;;;;;;;5034646;28;19905;-70
2023/01/19 12:07:05;;;;;;;;;;;;;;;;;;5034416;28;19909;-70
2023/01/19 12:09:32;;;;;;;;;;;;;;;;;;5033062;28;20354;-70
2023/01/19 12:11:58;;;;;;;;;;;;;;;;;;5034440;28;19919;-71
2023/01/19 12:14:25;;;;;;;;;;;;;;;;;;5034121;28;20300;-71
2023/01/19 12:16:52;;;;;;;;;;;;;;;;;;5034255;28;19911;-70
2023/01/19 12:19:18;;;;;;;;;;;;;;;;;;5034346;28;19905;-70
2023/01/19 12:21:46;;;;;;;;;;;;;;;;;;5034223;28;19913;-70
2023/01/19 12:24:14;;;;;;;;;;;;;;;;;;5034077;28;19912;-69
2023/01/19 12:26:41;;;;;;;;;;;;;;;;;;5032823;28;20308;-70
2023/01/19 12:29:07;;;;;;;;;;;;;;;;;;5033996;28;19909;-70
2023/01/19 12:31:33;;;;;;;;;;;;;;;;;;5033929;28;19905;-70
2023/01/19 12:34:00;;;;;;;;;;;;;;;;;;5034087;28;19905;-70
2023/01/19 12:36:26;;;;;;;;;;;;;;;;;;5032552;28;19998;-70
2023/01/19 12:38:52;;;;;;;;;;;;;;;;;;5034479;28;19905;-70
2023/01/19 12:41:18;;;;;;;;;;;;;;;;;;5034891;28;19913;-70
2023/01/19 12:43:44;;;;;;;;;;;;;;;;;;5034132;28;19908;-70
2023/01/19 12:46:11;;;;;;;;;;;;;;;;;;5034460;28;19962;-70
2023/01/19 12:48:37;;;;;;;;;;;;;;;;;;5030212;28;19911;-70
2023/01/19 12:51:03;;;;;;;;;;;;;;;;;;5033422;28;19920;-70
2023/01/19 12:53:29;;;;;;;;;;;;;;;;;;5033953;28;19909;-70
2023/01/19 12:55:55;;;;;;;;;;;;;;;;;;5032734;28;19959;-70
2023/01/19 12:58:22;;;;;;;;;;;;;;;;;;5037922;28;19909;-70
2023/01/19 13:00:48;;;;;;;;;;;;;;;;;;5041656;28;19919;-70
2023/01/19 13:03:14;;;;;;;;;;;;;;;;;;5033639;28;19905;-70
2023/01/19 13:05:40;;;;;;;;;;;;;;;;;;5033630;28;19909;-70
2023/01/19 13:08:13;;;;;;;;;;;;;;;;;;5033495;28;19912;-70
2023/01/19 13:10:39;;;;;;;;;;;;;;;;;;5013941;28;19909;-69
2023/01/19 13:13:05;;;;;;;;;;;;;;;;;;5023628;28;20389;-70
2023/01/19 13:15:31;;;;;;;;;;;;;;;;;;5028858;28;19966;-70
2023/01/19 13:17:57;;;;;;;;;;;;;;;;;;5023978;28;19913;-70
2023/01/19 13:20:24;;;;;;;;;;;;;;;;;;5032412;28;19915;-70
2023/01/19 13:22:50;;;;;;;;;;;;;;;;;;5029891;28;20360;-70
2023/01/19 13:25:16;;;;;;;;;;;;;;;;;;5041567;28;20373;-70
2023/01/19 13:27:42;;;;;;;;;;;;;;;;;;5036370;28;19919;-70
2023/01/19 13:30:09;;;;;;;;;;;;;;;;;;5033343;28;19919;-70
2023/01/19 13:32:35;;;;;;;;;;;;;;;;;;5039119;28;19917;-69
2023/01/19 13:35:01;;;;;;;;;;;;;;;;;;5018818;28;19916;-70
2023/01/19 13:37:27;;;;;;;;;;;;;;;;;;5044091;28;19939;-69
2023/01/19 13:39:53;;;;;;;;;;;;;;;;;;5028940;28;19913;-69
2023/01/19 13:42:20;;;;;;;;;;;;;;;;;;5009849;28;20348;-69
2023/01/19 13:44:50;;;;;;;;;;;;;;;;;;5025089;28;19913;-70
2023/01/19 13:47:16;;;;;;;;;;;;;;;;;;5043266;28;19909;-70
2023/01/19 13:49:43;;;;;;;;;;;;;;;;;;5039296;28;19913;-70
2023/01/19 13:52:09;;;;;;;;;;;;;;;;;;5037967;28;19916;-69
2023/01/19 13:54:36;;;;;;;;;;;;;;;;;;5036455;28;20540;-68
2023/01/19 13:57:02;;;;;;;;;;;;;;;;;;5037004;28;20268;-69
2023/01/19 13:59:28;;;;;;;;;;;;;;;;;;5036091;28;19915;-68
2023/01/19 14:01:54;;;;;;;;;;;;;;;;;;5038942;28;19913;-69
2023/01/19 14:04:20;;;;;;;;;;;;;;;;;;5042495;28;19950;-69
2023/01/19 14:06:47;;;;;;;;;;;;;;;;;;5038094;28;19919;-69
2023/01/19 14:09:16;;;;;;;;;;;;;;;;;;5039100;28;20412;-69
2023/01/19 14:11:42;;;;;;;;;;;;;;;;;;5034480;28;19920;-70
2023/01/19 14:14:08;;;;;;;;;;;;;;;;;;5036839;28;19909;-68
2023/01/19 14:16:34;;;;;;;;;;;;;;;;;;5037060;28;19939;-68
2023/01/19 14:19:03;;;;;;;;;;;;;;;;;;5037018;28;19920;-70
2023/01/19 14:21:29;;;;;;;;;;;;;;;;;;5036909;28;20377;-69
2023/01/19 14:23:56;;;;;;;;;;;;;;;;;;5035509;28;20324;-70
2023/01/19 14:26:22;;;;;;;;;;;;;;;;;;5029499;28;20290;-70
2023/01/19 14:28:48;;;;;;;;;;;;;;;;;;5031611;28;19905;-69
2023/01/19 14:31:14;;;;;;;;;;;;;;;;;;5031037;28;19911;-70
2023/01/19 14:33:41;;;;;;;;;;;;;;;;;;5029680;28;19905;-70
2023/01/19 14:36:07;;;;;;;;;;;;;;;;;;5036811;28;19912;-68
2023/01/19 14:38:33;;;;;;;;;;;;;;;;;;5040317;28;19916;-70
2023/01/19 14:40:59;;;;;;;;;;;;;;;;;;5035721;28;19925;-71
2023/01/19 14:43:27;;;;;;;;;;;;;;;;;;5029053;28;19913;-69
2023/01/19 14:45:53;;;;;;;;;;;;;;;;;;5032933;28;19915;-69
2023/01/19 14:48:20;;;;;;;;;;;;;;;;;;5034841;28;20366;-70
2023/01/19 14:50:49;;;;;;;;;;;;;;;;;;5030774;28;19913;-70
2023/01/19 14:53:15;;;;;;;;;;;;;;;;;;5030357;28;19917;-70
2023/01/19 14:55:41;;;;;;;;;;;;;;;;;;5044515;28;19917;-70
2023/01/19 14:58:08;;;;;;;;;;;;;;;;;;5050832;28;19982;-73
2023/01/19 15:00:34;;;;;;;;;;;;;;;;;;5056781;28;20407;-70
2023/01/19 15:03:00;;;;;;;;;;;;;;;;;;5048979;28;19917;-70
2023/01/19 15:05:26;;;;;;;;;;;;;;;;;;5035058;28;19919;-70
2023/01/19 15:07:53;;;;;;;;;;;;;;;;;;5035129;28;20447;-69
2023/01/19 15:10:19;;;;;;;;;;;;;;;;;;5050540;28;19908;-70
2023/01/19 15:12:45;;;;;;;;;;;;;;;;;;5057558;28;19905;-69
2023/01/19 15:15:12;;;;;;;;;;;;;;;;;;5036199;28;19915;-69
2023/01/19 15:17:38;;;;;;;;;;;;;;;;;;5036485;28;20354;-70
2023/01/19 15:20:04;;;;;;;;;;;;;;;;;;5037201;28;19911;-70
2023/01/19 15:22:30;;;;;;;;;;;;;;;;;;5036777;28;19925;-70
2023/01/19 15:24:58;;;;;;;;;;;;;;;;;;5037045;28;19911;-70
2023/01/19 15:27:25;;;;;;;;;;;;;;;;;;5037093;28;19915;-70
2023/01/19 15:29:51;;;;;;;;;;;;;;;;;;5037285;28;19905;-70
2023/01/19 15:32:17;;;;;;;;;;;;;;;;;;5037544;28;19909;-70
2023/01/19 15:34:43;;;;;;;;;;;;;;;;;;5037367;28;19909;-70
2023/01/19 15:37:09;;;;;;;;;;;;;;;;;;5036531;28;19970;-69
2023/01/19 15:39:36;;;;;;;;;;;;;;;;;;5037365;28;19905;-70
2023/01/19 15:42:02;;;;;;;;;;;;;;;;;;5036624;28;20484;-70
2023/01/19 15:44:28;;;;;;;;;;;;;;;;;;5036896;28;19919;-70
2023/01/19 15:46:55;;;;;;;;;;;;;;;;;;5036598;28;19931;-69
2023/01/19 15:49:22;;;;;;;;;;;;;;;;;;5037068;28;19963;-70
2023/01/19 15:51:48;;;;;;;;;;;;;;;;;;5036515;28;20390;-70
2023/01/19 15:54:14;;;;;;;;;;;;;;;;;;5037503;28;19913;-69
2023/01/19 15:56:41;;;;;;;;;;;;;;;;;;5045996;28;19912;-69
2023/01/19 15:59:07;;;;;;;;;;;;;;;;;;5040326;28;19912;-70
2023/01/19 16:01:33;;;;;;;;;;;;;;;;;;5056648;28;20282;-69
2023/01/19 16:04:00;;;;;;;;;;;;;;;;;;5046926;28;20655;-70
2023/01/19 16:06:26;;;;;;;;;;;;;;;;;;5036156;28;19909;-70
2023/01/19 16:08:57;;;;;;;;;;;;;;;;;;5036047;28;19911;-69
2023/01/19 16:11:24;;;;;;;;;;;;;;;;;;5034086;28;19905;-70
2023/01/19 16:13:50;;;;;;;;;;;;;;;;;;5033238;28;19909;-70
2023/01/19 16:16:16;;;;;;;;;;;;;;;;;;5043017;28;19908;-71
2023/01/19 16:18:43;;;;;;;;;;;;;;;;;;5047834;28;19905;-70
2023/01/19 16:21:09;;;;;;;;;;;;;;;;;;5044541;28;19915;-71
2023/01/19 16:23:35;;;;;;;;;;;;;;;;;;5033745;28;19908;-70
2023/01/19 16:26:06;;;;;;;;;;;;;;;;;;5034500;28;19905;-70
2023/01/19 16:28:32;;;;;;;;;;;;;;;;;;5032037;28;19920;-70
2023/01/19 16:30:59;;;;;;;;;;;;;;;;;;5033563;28;19915;-69
2023/01/19 16:33:25;;;;;;;;;;;;;;;;;;5034653;28;19911;-70
2023/01/19 16:35:51;;;;;;;;;;;;;;;;;;5033352;28;19912;-69
2023/01/19 16:38:17;;;;;;;;;;;;;;;;;;5034294;28;19905;-70
2023/01/19 16:40:44;;;;;;;;;;;;;;;;;;5034311;28;19955;-70
2023/01/19 16:43:10;;;;;;;;;;;;;;;;;;5034372;28;20282;-70
2023/01/19 16:45:36;;;;;;;;;;;;;;;;;;5034616;28;19912;-70
2023/01/19 16:48:02;;;;;;;;;;;;;;;;;;5034492;28;19907;-70
2023/01/19 16:50:29;;;;;;;;;;;;;;;;;;5033918;28;19928;-70